sensor_id;sensor_type;location;lat;lon;timestamp;P1;durP1;ratioP1;P2;durP2;ratioP2
24223;SDS011;12359;49.716;9.212;2022-11-15T00:01:41;15.60;;;11.52;;
24223;SDS011;12359;49.716;9.212;2022-11-15T00:04:07;18.52;;;14.27;;
24223;SDS011;12359;49.716;9.212;2022-11-15T00:06:32;17.10;;;13.43;;
24223;SDS011;12359;49.716;9.212;2022-11-15T00:08:58;12.10;;;8.60;;
24223;SDS011;12359;49.716;9.212;2022-11-15T00:11:25;8.50;;;6.78;;
24223;SDS011;12359;49.716;9.212;2022-11-15T00:13:50;10.88;;;7.32;;
24223;SDS011;12359;49.716;9.212;2022-11-15T00:16:19;10.02;;;7.55;;
24223;SDS011;12359;49.716;9.212;2022-11-15T00:18:45;10.82;;;7.40;;
24223;SDS011;12359;49.716;9.212;2022-11-15T00:21:11;6.47;;;5.88;;
24223;SDS011;12359;49.716;9.212;2022-11-15T00:23:38;8.02;;;5.93;;
24223;SDS011;12359;49.716;9.212;2022-11-15T00:26:04;12.20;;;10.00;;
24223;SDS011;12359;49.716;9.212;2022-11-15T00:28:29;14.60;;;11.07;;
24223;SDS011;12359;49.716;9.212;2022-11-15T00:31:02;10.88;;;9.30;;
24223;SDS011;12359;49.716;9.212;2022-11-15T00:33:29;13.10;;;9.68;;
24223;SDS011;12359;49.716;9.212;2022-11-15T00:36:05;12.20;;;8.85;;
24223;SDS011;12359;49.716;9.212;2022-11-15T00:38:34;12.85;;;8.88;;
24223;SDS011;12359;49.716;9.212;2022-11-15T00:41:02;14.20;;;9.95;;
24223;SDS011;12359;49.716;9.212;2022-11-15T00:43:28;12.02;;;9.15;;
24223;SDS011;12359;49.716;9.212;2022-11-15T00:45:54;7.93;;;6.30;;
24223;SDS011;12359;49.716;9.212;2022-11-15T00:48:20;11.35;;;7.72;;
24223;SDS011;12359;49.716;9.212;2022-11-15T00:50:45;12.70;;;7.97;;
24223;SDS011;12359;49.716;9.212;2022-11-15T00:53:11;11.70;;;8.57;;
24223;SDS011;12359;49.716;9.212;2022-11-15T00:55:37;16.38;;;9.90;;
24223;SDS011;12359;49.716;9.212;2022-11-15T00:58:02;10.00;;;8.95;;
24223;SDS011;12359;49.716;9.212;2022-11-15T01:00:28;12.38;;;10.25;;
24223;SDS011;12359;49.716;9.212;2022-11-15T01:02:54;16.92;;;10.32;;
24223;SDS011;12359;49.716;9.212;2022-11-15T01:05:19;16.80;;;10.45;;
24223;SDS011;12359;49.716;9.212;2022-11-15T01:07:45;12.43;;;10.43;;
24223;SDS011;12359;49.716;9.212;2022-11-15T01:10:11;12.07;;;10.45;;
24223;SDS011;12359;49.716;9.212;2022-11-15T01:12:37;15.48;;;11.10;;
24223;SDS011;12359;49.716;9.212;2022-11-15T01:15:03;12.10;;;9.95;;
24223;SDS011;12359;49.716;9.212;2022-11-15T01:17:30;13.27;;;9.65;;
24223;SDS011;12359;49.716;9.212;2022-11-15T01:19:56;13.15;;;11.13;;
24223;SDS011;12359;49.716;9.212;2022-11-15T01:22:23;15.35;;;12.07;;
24223;SDS011;12359;49.716;9.212;2022-11-15T01:24:51;14.57;;;11.95;;
24223;SDS011;12359;49.716;9.212;2022-11-15T01:27:17;15.75;;;11.75;;
24223;SDS011;12359;49.716;9.212;2022-11-15T01:29:43;12.75;;;10.95;;
24223;SDS011;12359;49.716;9.212;2022-11-15T01:32:08;16.58;;;13.73;;
24223;SDS011;12359;49.716;9.212;2022-11-15T01:34:34;20.52;;;17.55;;
24223;SDS011;12359;49.716;9.212;2022-11-15T01:37:00;21.45;;;15.35;;
24223;SDS011;12359;49.716;9.212;2022-11-15T01:39:25;20.63;;;15.68;;
24223;SDS011;12359;49.716;9.212;2022-11-15T01:41:51;20.73;;;15.27;;
24223;SDS011;12359;49.716;9.212;2022-11-15T01:47:31;17.87;;;14.33;;
24223;SDS011;12359;49.716;9.212;2022-11-15T01:50:05;18.83;;;14.55;;
24223;SDS011;12359;49.716;9.212;2022-11-15T01:52:34;17.20;;;14.60;;
24223;SDS011;12359;49.716;9.212;2022-11-15T01:55:21;17.52;;;13.93;;
24223;SDS011;12359;49.716;9.212;2022-11-15T01:57:51;14.57;;;13.07;;
24223;SDS011;12359;49.716;9.212;2022-11-15T02:00:22;17.60;;;14.23;;
24223;SDS011;12359;49.716;9.212;2022-11-15T02:02:48;19.48;;;14.52;;
24223;SDS011;12359;49.716;9.212;2022-11-15T02:05:14;17.80;;;14.65;;
24223;SDS011;12359;49.716;9.212;2022-11-15T02:07:40;20.48;;;15.70;;
24223;SDS011;12359;49.716;9.212;2022-11-15T02:10:19;16.23;;;14.55;;
24223;SDS011;12359;49.716;9.212;2022-11-15T02:12:47;13.52;;;12.13;;
24223;SDS011;12359;49.716;9.212;2022-11-15T02:15:14;13.68;;;11.50;;
24223;SDS011;12359;49.716;9.212;2022-11-15T02:26:31;18.02;;;15.07;;
24223;SDS011;12359;49.716;9.212;2022-11-15T02:32:15;18.60;;;15.00;;
24223;SDS011;12359;49.716;9.212;2022-11-15T02:34:57;18.55;;;14.80;;
24223;SDS011;12359;49.716;9.212;2022-11-15T02:37:51;19.35;;;15.18;;
24223;SDS011;12359;49.716;9.212;2022-11-15T02:43:00;16.80;;;14.90;;
24223;SDS011;12359;49.716;9.212;2022-11-15T02:46:13;13.77;;;12.38;;
24223;SDS011;12359;49.716;9.212;2022-11-15T02:49:14;17.70;;;12.82;;
24223;SDS011;12359;49.716;9.212;2022-11-15T02:51:40;16.90;;;13.23;;
24223;SDS011;12359;49.716;9.212;2022-11-15T02:54:12;15.63;;;13.85;;
24223;SDS011;12359;49.716;9.212;2022-11-15T02:56:41;17.67;;;14.07;;
24223;SDS011;12359;49.716;9.212;2022-11-15T02:59:23;18.40;;;13.15;;
24223;SDS011;12359;49.716;9.212;2022-11-15T03:04:44;16.23;;;12.88;;
24223;SDS011;12359;49.716;9.212;2022-11-15T03:07:37;17.00;;;14.68;;
24223;SDS011;12359;49.716;9.212;2022-11-15T03:10:08;20.67;;;14.05;;
24223;SDS011;12359;49.716;9.212;2022-11-15T03:12:49;19.23;;;13.43;;
24223;SDS011;12359;49.716;9.212;2022-11-15T03:15:22;15.27;;;12.82;;
24223;SDS011;12359;49.716;9.212;2022-11-15T03:17:55;19.75;;;14.98;;
24223;SDS011;12359;49.716;9.212;2022-11-15T03:20:26;18.38;;;12.73;;
24223;SDS011;12359;49.716;9.212;2022-11-15T03:22:53;15.77;;;13.85;;
24223;SDS011;12359;49.716;9.212;2022-11-15T03:25:22;15.63;;;12.20;;
24223;SDS011;12359;49.716;9.212;2022-11-15T03:27:50;12.02;;;10.68;;
24223;SDS011;12359;49.716;9.212;2022-11-15T03:30:18;13.27;;;11.05;;
24223;SDS011;12359;49.716;9.212;2022-11-15T03:32:49;13.35;;;11.23;;
24223;SDS011;12359;49.716;9.212;2022-11-15T03:35:20;16.05;;;12.25;;
24223;SDS011;12359;49.716;9.212;2022-11-15T03:40:34;12.75;;;11.45;;
24223;SDS011;12359;49.716;9.212;2022-11-15T03:45:40;14.88;;;11.93;;
24223;SDS011;12359;49.716;9.212;2022-11-15T03:48:21;13.52;;;12.13;;
24223;SDS011;12359;49.716;9.212;2022-11-15T03:50:52;15.70;;;13.07;;
24223;SDS011;12359;49.716;9.212;2022-11-15T03:53:18;14.68;;;10.38;;
24223;SDS011;12359;49.716;9.212;2022-11-15T03:55:44;15.55;;;11.60;;
24223;SDS011;12359;49.716;9.212;2022-11-15T03:58:09;11.25;;;9.98;;
24223;SDS011;12359;49.716;9.212;2022-11-15T04:00:35;18.25;;;13.02;;
24223;SDS011;12359;49.716;9.212;2022-11-15T04:03:01;15.60;;;12.65;;
24223;SDS011;12359;49.716;9.212;2022-11-15T04:05:27;15.18;;;12.27;;
24223;SDS011;12359;49.716;9.212;2022-11-15T04:07:52;13.00;;;11.50;;
24223;SDS011;12359;49.716;9.212;2022-11-15T04:10:18;13.52;;;12.13;;
24223;SDS011;12359;49.716;9.212;2022-11-15T04:12:44;16.65;;;12.15;;
24223;SDS011;12359;49.716;9.212;2022-11-15T04:15:17;13.60;;;11.30;;
24223;SDS011;12359;49.716;9.212;2022-11-15T04:17:47;14.07;;;12.32;;
24223;SDS011;12359;49.716;9.212;2022-11-15T04:20:19;15.20;;;10.98;;
24223;SDS011;12359;49.716;9.212;2022-11-15T04:23:26;13.05;;;9.73;;
24223;SDS011;12359;49.716;9.212;2022-11-15T04:26:14;13.00;;;10.20;;
24223;SDS011;12359;49.716;9.212;2022-11-15T04:28:43;13.20;;;10.70;;
24223;SDS011;12359;49.716;9.212;2022-11-15T04:31:27;14.07;;;10.80;;
24223;SDS011;12359;49.716;9.212;2022-11-15T04:33:53;15.30;;;10.85;;
24223;SDS011;12359;49.716;9.212;2022-11-15T04:36:20;17.50;;;10.68;;
24223;SDS011;12359;49.716;9.212;2022-11-15T04:39:05;12.88;;;11.07;;
24223;SDS011;12359;49.716;9.212;2022-11-15T04:41:31;14.07;;;10.85;;
24223;SDS011;12359;49.716;9.212;2022-11-15T04:43:56;17.02;;;13.27;;
24223;SDS011;12359;49.716;9.212;2022-11-15T04:46:22;17.90;;;12.98;;
24223;SDS011;12359;49.716;9.212;2022-11-15T04:48:48;16.02;;;13.65;;
24223;SDS011;12359;49.716;9.212;2022-11-15T04:51:14;15.32;;;13.23;;
24223;SDS011;12359;49.716;9.212;2022-11-15T04:53:40;15.80;;;14.20;;
24223;SDS011;12359;49.716;9.212;2022-11-15T04:56:06;17.70;;;14.30;;
24223;SDS011;12359;49.716;9.212;2022-11-15T04:58:32;17.00;;;14.32;;
24223;SDS011;12359;49.716;9.212;2022-11-15T05:00:58;13.93;;;12.48;;
24223;SDS011;12359;49.716;9.212;2022-11-15T05:03:39;15.75;;;11.30;;
24223;SDS011;12359;49.716;9.212;2022-11-15T05:06:24;10.82;;;8.77;;
24223;SDS011;12359;49.716;9.212;2022-11-15T05:08:50;12.65;;;9.32;;
24223;SDS011;12359;49.716;9.212;2022-11-15T05:11:16;13.77;;;8.75;;
24223;SDS011;12359;49.716;9.212;2022-11-15T05:13:41;16.52;;;9.27;;
24223;SDS011;12359;49.716;9.212;2022-11-15T05:16:07;11.90;;;10.52;;
24223;SDS011;12359;49.716;9.212;2022-11-15T05:18:32;12.90;;;11.20;;
24223;SDS011;12359;49.716;9.212;2022-11-15T05:21:08;12.95;;;11.65;;
24223;SDS011;12359;49.716;9.212;2022-11-15T05:23:36;12.90;;;10.93;;
24223;SDS011;12359;49.716;9.212;2022-11-15T05:26:02;15.73;;;11.18;;
24223;SDS011;12359;49.716;9.212;2022-11-15T05:28:29;13.55;;;11.35;;
24223;SDS011;12359;49.716;9.212;2022-11-15T05:31:05;13.27;;;11.80;;
24223;SDS011;12359;49.716;9.212;2022-11-15T05:33:33;19.40;;;13.95;;
24223;SDS011;12359;49.716;9.212;2022-11-15T05:36:10;13.32;;;11.52;;
24223;SDS011;12359;49.716;9.212;2022-11-15T05:38:43;17.42;;;11.35;;
24223;SDS011;12359;49.716;9.212;2022-11-15T05:41:10;16.55;;;13.35;;
24223;SDS011;12359;49.716;9.212;2022-11-15T05:43:37;9.73;;;8.10;;
24223;SDS011;12359;49.716;9.212;2022-11-15T05:46:04;10.80;;;8.77;;
24223;SDS011;12359;49.716;9.212;2022-11-15T05:48:30;9.80;;;7.97;;
24223;SDS011;12359;49.716;9.212;2022-11-15T05:50:57;8.43;;;7.38;;
24223;SDS011;12359;49.716;9.212;2022-11-15T05:53:23;8.57;;;7.57;;
24223;SDS011;12359;49.716;9.212;2022-11-15T05:55:50;11.48;;;8.20;;
24223;SDS011;12359;49.716;9.212;2022-11-15T05:58:17;11.40;;;9.07;;
24223;SDS011;12359;49.716;9.212;2022-11-15T06:00:43;11.07;;;8.40;;
24223;SDS011;12359;49.716;9.212;2022-11-15T06:03:09;10.40;;;8.25;;
24223;SDS011;12359;49.716;9.212;2022-11-15T06:05:35;13.45;;;9.77;;
24223;SDS011;12359;49.716;9.212;2022-11-15T06:08:01;17.50;;;11.25;;
24223;SDS011;12359;49.716;9.212;2022-11-15T06:10:26;18.38;;;14.25;;
24223;SDS011;12359;49.716;9.212;2022-11-15T06:13:02;22.35;;;16.33;;
24223;SDS011;12359;49.716;9.212;2022-11-15T06:15:29;17.90;;;14.30;;
24223;SDS011;12359;49.716;9.212;2022-11-15T06:17:58;17.35;;;15.27;;
24223;SDS011;12359;49.716;9.212;2022-11-15T06:20:25;23.70;;;17.83;;
24223;SDS011;12359;49.716;9.212;2022-11-15T06:22:56;21.48;;;19.25;;
24223;SDS011;12359;49.716;9.212;2022-11-15T06:25:25;22.38;;;16.88;;
24223;SDS011;12359;49.716;9.212;2022-11-15T06:27:55;17.02;;;15.15;;
24223;SDS011;12359;49.716;9.212;2022-11-15T06:30:22;22.67;;;15.35;;
24223;SDS011;12359;49.716;9.212;2022-11-15T06:32:48;17.83;;;15.35;;
24223;SDS011;12359;49.716;9.212;2022-11-15T06:35:14;17.38;;;14.07;;
24223;SDS011;12359;49.716;9.212;2022-11-15T06:37:40;24.33;;;14.48;;
24223;SDS011;12359;49.716;9.212;2022-11-15T06:40:07;16.65;;;14.90;;
24223;SDS011;12359;49.716;9.212;2022-11-15T06:42:34;17.13;;;14.65;;
24223;SDS011;12359;49.716;9.212;2022-11-15T06:44:59;20.60;;;16.33;;
24223;SDS011;12359;49.716;9.212;2022-11-15T06:47:25;18.75;;;13.48;;
24223;SDS011;12359;49.716;9.212;2022-11-15T06:49:51;16.13;;;11.32;;
24223;SDS011;12359;49.716;9.212;2022-11-15T06:52:17;12.73;;;9.65;;
24223;SDS011;12359;49.716;9.212;2022-11-15T06:54:46;11.25;;;8.15;;
24223;SDS011;12359;49.716;9.212;2022-11-15T06:57:12;14.10;;;8.07;;
24223;SDS011;12359;49.716;9.212;2022-11-15T06:59:38;12.70;;;10.00;;
24223;SDS011;12359;49.716;9.212;2022-11-15T07:02:04;19.17;;;12.68;;
24223;SDS011;12359;49.716;9.212;2022-11-15T07:04:29;13.95;;;10.55;;
24223;SDS011;12359;49.716;9.212;2022-11-15T07:06:55;15.23;;;11.98;;
24223;SDS011;12359;49.716;9.212;2022-11-15T07:09:21;12.43;;;8.70;;
24223;SDS011;12359;49.716;9.212;2022-11-15T07:11:46;12.05;;;7.72;;
24223;SDS011;12359;49.716;9.212;2022-11-15T07:14:12;8.18;;;7.20;;
24223;SDS011;12359;49.716;9.212;2022-11-15T07:16:37;12.75;;;6.55;;
24223;SDS011;12359;49.716;9.212;2022-11-15T07:19:03;5.97;;;5.20;;
24223;SDS011;12359;49.716;9.212;2022-11-15T07:21:29;7.03;;;4.97;;
24223;SDS011;12359;49.716;9.212;2022-11-15T07:23:54;6.30;;;5.00;;
24223;SDS011;12359;49.716;9.212;2022-11-15T07:26:20;5.57;;;4.70;;
24223;SDS011;12359;49.716;9.212;2022-11-15T07:28:46;7.13;;;5.82;;
24223;SDS011;12359;49.716;9.212;2022-11-15T07:31:11;12.15;;;8.85;;
24223;SDS011;12359;49.716;9.212;2022-11-15T07:33:37;17.48;;;13.82;;
24223;SDS011;12359;49.716;9.212;2022-11-15T07:36:03;24.05;;;15.63;;
24223;SDS011;12359;49.716;9.212;2022-11-15T07:38:31;17.90;;;15.90;;
24223;SDS011;12359;49.716;9.212;2022-11-15T07:40:58;20.88;;;16.00;;
24223;SDS011;12359;49.716;9.212;2022-11-15T07:43:26;18.27;;;14.07;;
24223;SDS011;12359;49.716;9.212;2022-11-15T07:45:55;15.63;;;11.07;;
24223;SDS011;12359;49.716;9.212;2022-11-15T07:48:21;15.02;;;11.75;;
24223;SDS011;12359;49.716;9.212;2022-11-15T07:50:47;13.00;;;11.60;;
24223;SDS011;12359;49.716;9.212;2022-11-15T07:53:13;13.82;;;12.38;;
24223;SDS011;12359;49.716;9.212;2022-11-15T07:55:39;11.32;;;9.95;;
24223;SDS011;12359;49.716;9.212;2022-11-15T07:58:07;15.55;;;13.95;;
24223;SDS011;12359;49.716;9.212;2022-11-15T08:00:35;14.65;;;13.02;;
24223;SDS011;12359;49.716;9.212;2022-11-15T08:03:05;14.73;;;10.38;;
24223;SDS011;12359;49.716;9.212;2022-11-15T08:05:32;9.05;;;8.02;;
24223;SDS011;12359;49.716;9.212;2022-11-15T08:07:58;7.30;;;4.97;;
24223;SDS011;12359;49.716;9.212;2022-11-15T08:10:24;9.57;;;6.15;;
24223;SDS011;12359;49.716;9.212;2022-11-15T08:12:57;9.98;;;7.78;;
24223;SDS011;12359;49.716;9.212;2022-11-15T08:15:28;16.75;;;11.13;;
24223;SDS011;12359;49.716;9.212;2022-11-15T08:17:55;12.38;;;8.95;;
24223;SDS011;12359;49.716;9.212;2022-11-15T08:20:25;10.80;;;8.65;;
24223;SDS011;12359;49.716;9.212;2022-11-15T08:22:55;10.52;;;9.32;;
24223;SDS011;12359;49.716;9.212;2022-11-15T08:25:21;10.73;;;9.63;;
24223;SDS011;12359;49.716;9.212;2022-11-15T08:27:50;12.05;;;7.28;;
24223;SDS011;12359;49.716;9.212;2022-11-15T08:30:16;9.88;;;8.25;;
24223;SDS011;12359;49.716;9.212;2022-11-15T08:32:42;14.85;;;10.38;;
24223;SDS011;12359;49.716;9.212;2022-11-15T08:35:08;9.73;;;8.30;;
24223;SDS011;12359;49.716;9.212;2022-11-15T08:37:34;10.52;;;7.35;;
24223;SDS011;12359;49.716;9.212;2022-11-15T08:40:00;9.52;;;6.60;;
24223;SDS011;12359;49.716;9.212;2022-11-15T08:42:26;9.10;;;6.47;;
24223;SDS011;12359;49.716;9.212;2022-11-15T08:44:51;7.32;;;5.90;;
24223;SDS011;12359;49.716;9.212;2022-11-15T08:47:17;11.23;;;5.18;;
24223;SDS011;12359;49.716;9.212;2022-11-15T08:49:43;7.32;;;5.28;;
24223;SDS011;12359;49.716;9.212;2022-11-15T08:52:08;6.65;;;5.15;;
24223;SDS011;12359;49.716;9.212;2022-11-15T08:54:34;7.75;;;5.85;;
24223;SDS011;12359;49.716;9.212;2022-11-15T08:57:00;10.57;;;6.60;;
24223;SDS011;12359;49.716;9.212;2022-11-15T08:59:25;11.73;;;6.22;;
24223;SDS011;12359;49.716;9.212;2022-11-15T09:01:51;9.95;;;6.40;;
24223;SDS011;12359;49.716;9.212;2022-11-15T09:04:17;9.32;;;7.40;;
24223;SDS011;12359;49.716;9.212;2022-11-15T09:06:42;7.32;;;6.25;;
24223;SDS011;12359;49.716;9.212;2022-11-15T09:09:08;8.15;;;6.03;;
24223;SDS011;12359;49.716;9.212;2022-11-15T09:11:34;9.88;;;5.95;;
24223;SDS011;12359;49.716;9.212;2022-11-15T09:13:59;9.95;;;4.50;;
24223;SDS011;12359;49.716;9.212;2022-11-15T09:16:26;7.03;;;4.43;;
24223;SDS011;12359;49.716;9.212;2022-11-15T09:18:52;5.88;;;4.38;;
24223;SDS011;12359;49.716;9.212;2022-11-15T09:21:19;8.05;;;4.50;;
24223;SDS011;12359;49.716;9.212;2022-11-15T09:23:45;9.43;;;4.93;;
24223;SDS011;12359;49.716;9.212;2022-11-15T09:26:11;9.73;;;5.57;;
24223;SDS011;12359;49.716;9.212;2022-11-15T09:28:37;8.18;;;4.60;;
24223;SDS011;12359;49.716;9.212;2022-11-15T09:31:06;5.97;;;4.68;;
24223;SDS011;12359;49.716;9.212;2022-11-15T09:33:33;6.32;;;4.30;;
24223;SDS011;12359;49.716;9.212;2022-11-15T09:36:08;8.00;;;4.10;;
24223;SDS011;12359;49.716;9.212;2022-11-15T09:38:34;5.70;;;3.80;;
24223;SDS011;12359;49.716;9.212;2022-11-15T09:49:00;5.95;;;3.80;;
24223;SDS011;12359;49.716;9.212;2022-11-15T09:54:03;7.70;;;4.30;;
24223;SDS011;12359;49.716;9.212;2022-11-15T09:56:35;9.48;;;5.22;;
24223;SDS011;12359;49.716;9.212;2022-11-15T09:59:07;5.72;;;3.85;;
24223;SDS011;12359;49.716;9.212;2022-11-15T10:04:13;5.50;;;3.78;;
24223;SDS011;12359;49.716;9.212;2022-11-15T10:06:41;5.57;;;4.15;;
24223;SDS011;12359;49.716;9.212;2022-11-15T10:09:25;8.40;;;3.70;;
24223;SDS011;12359;49.716;9.212;2022-11-15T10:12:13;4.40;;;3.97;;
24223;SDS011;12359;49.716;9.212;2022-11-15T10:14:40;4.70;;;3.85;;
24223;SDS011;12359;49.716;9.212;2022-11-15T10:23:01;6.13;;;4.15;;
24223;SDS011;12359;49.716;9.212;2022-11-15T10:25:32;5.32;;;3.92;;
24223;SDS011;12359;49.716;9.212;2022-11-15T10:28:00;6.38;;;4.20;;
24223;SDS011;12359;49.716;9.212;2022-11-15T10:30:46;8.57;;;4.40;;
24223;SDS011;12359;49.716;9.212;2022-11-15T10:33:29;4.63;;;3.85;;
24223;SDS011;12359;49.716;9.212;2022-11-15T10:38:48;5.07;;;3.75;;
24223;SDS011;12359;49.716;9.212;2022-11-15T10:43:44;6.50;;;4.45;;
24223;SDS011;12359;49.716;9.212;2022-11-15T10:46:26;9.68;;;4.72;;
24223;SDS011;12359;49.716;9.212;2022-11-15T10:48:51;6.78;;;4.50;;
24223;SDS011;12359;49.716;9.212;2022-11-15T10:51:21;5.18;;;4.57;;
24223;SDS011;12359;49.716;9.212;2022-11-15T10:53:53;8.52;;;4.55;;
24223;SDS011;12359;49.716;9.212;2022-11-15T10:56:21;4.97;;;3.85;;
24223;SDS011;12359;49.716;9.212;2022-11-15T10:58:53;5.35;;;4.00;;
24223;SDS011;12359;49.716;9.212;2022-11-15T11:01:27;5.95;;;4.30;;
24223;SDS011;12359;49.716;9.212;2022-11-15T11:04:07;6.47;;;4.35;;
24223;SDS011;12359;49.716;9.212;2022-11-15T11:11:59;5.53;;;3.97;;
24223;SDS011;12359;49.716;9.212;2022-11-15T11:16:54;7.32;;;4.65;;
24223;SDS011;12359;49.716;9.212;2022-11-15T11:25:56;6.22;;;3.85;;
24223;SDS011;12359;49.716;9.212;2022-11-15T11:30:50;8.05;;;4.20;;
24223;SDS011;12359;49.716;9.212;2022-11-15T11:35:55;5.85;;;4.40;;
24223;SDS011;12359;49.716;9.212;2022-11-15T11:47:07;9.10;;;4.45;;
24223;SDS011;12359;49.716;9.212;2022-11-15T11:55:26;7.72;;;4.35;;
24223;SDS011;12359;49.716;9.212;2022-11-15T12:00:41;6.35;;;4.57;;
24223;SDS011;12359;49.716;9.212;2022-11-15T12:03:14;5.03;;;4.53;;
24223;SDS011;12359;49.716;9.212;2022-11-15T12:13:53;5.18;;;4.68;;
24223;SDS011;12359;49.716;9.212;2022-11-15T12:16:26;11.23;;;4.57;;
24223;SDS011;12359;49.716;9.212;2022-11-15T12:18:54;7.47;;;4.55;;
24223;SDS011;12359;49.716;9.212;2022-11-15T12:24:08;4.40;;;3.50;;
24223;SDS011;12359;49.716;9.212;2022-11-15T12:26:52;7.57;;;5.10;;
24223;SDS011;12359;49.716;9.212;2022-11-15T12:29:28;8.68;;;4.00;;
24223;SDS011;12359;49.716;9.212;2022-11-15T12:32:05;4.45;;;4.00;;
24223;SDS011;12359;49.716;9.212;2022-11-15T12:34:50;4.63;;;3.80;;
24223;SDS011;12359;49.716;9.212;2022-11-15T12:45:39;4.22;;;3.78;;
24223;SDS011;12359;49.716;9.212;2022-11-15T12:56:22;8.05;;;3.67;;
24223;SDS011;12359;49.716;9.212;2022-11-15T12:58:56;5.82;;;3.83;;
24223;SDS011;12359;49.716;9.212;2022-11-15T13:06:56;5.95;;;4.70;;
24223;SDS011;12359;49.716;9.212;2022-11-15T13:12:03;4.93;;;4.07;;
24223;SDS011;12359;49.716;9.212;2022-11-15T13:19:43;6.25;;;3.97;;
24223;SDS011;12359;49.716;9.212;2022-11-15T13:22:11;7.72;;;4.05;;
24223;SDS011;12359;49.716;9.212;2022-11-15T13:24:56;6.85;;;4.00;;
24223;SDS011;12359;49.716;9.212;2022-11-15T13:27:23;6.88;;;4.68;;
24223;SDS011;12359;49.716;9.212;2022-11-15T13:29:50;5.90;;;3.78;;
24223;SDS011;12359;49.716;9.212;2022-11-15T13:32:17;5.25;;;4.00;;
24223;SDS011;12359;49.716;9.212;2022-11-15T13:34:43;9.15;;;4.85;;
24223;SDS011;12359;49.716;9.212;2022-11-15T13:39:47;7.53;;;4.72;;
24223;SDS011;12359;49.716;9.212;2022-11-15T13:42:18;9.88;;;5.32;;
24223;SDS011;12359;49.716;9.212;2022-11-15T13:47:25;6.07;;;5.22;;
24223;SDS011;12359;49.716;9.212;2022-11-15T13:49:52;6.30;;;3.40;;
24223;SDS011;12359;49.716;9.212;2022-11-15T13:52:18;5.43;;;4.03;;
24223;SDS011;12359;49.716;9.212;2022-11-15T13:54:59;5.43;;;3.92;;
24223;SDS011;12359;49.716;9.212;2022-11-15T13:57:35;6.75;;;4.57;;
24223;SDS011;12359;49.716;9.212;2022-11-15T14:02:56;4.80;;;3.70;;
24223;SDS011;12359;49.716;9.212;2022-11-15T14:05:29;6.93;;;3.60;;
24223;SDS011;12359;49.716;9.212;2022-11-15T14:08:02;4.97;;;4.25;;
24223;SDS011;12359;49.716;9.212;2022-11-15T14:10:37;11.63;;;4.63;;
24223;SDS011;12359;49.716;9.212;2022-11-15T14:13:04;8.60;;;4.47;;
24223;SDS011;12359;49.716;9.212;2022-11-15T14:15:51;10.57;;;4.13;;
24223;SDS011;12359;49.716;9.212;2022-11-15T14:21:09;10.18;;;5.82;;
24223;SDS011;12359;49.716;9.212;2022-11-15T14:23:35;5.28;;;4.00;;
24223;SDS011;12359;49.716;9.212;2022-11-15T14:26:01;5.55;;;4.13;;
24223;SDS011;12359;49.716;9.212;2022-11-15T14:30:58;4.72;;;4.28;;
24223;SDS011;12359;49.716;9.212;2022-11-15T14:33:34;7.70;;;4.43;;
24223;SDS011;12359;49.716;9.212;2022-11-15T14:38:37;7.03;;;4.07;;
24223;SDS011;12359;49.716;9.212;2022-11-15T14:41:03;7.80;;;4.63;;
24223;SDS011;12359;49.716;9.212;2022-11-15T14:43:29;5.15;;;3.63;;
24223;SDS011;12359;49.716;9.212;2022-11-15T14:45:54;4.53;;;4.07;;
24223;SDS011;12359;49.716;9.212;2022-11-15T14:48:20;4.82;;;3.78;;
24223;SDS011;12359;49.716;9.212;2022-11-15T14:50:47;6.28;;;3.72;;
24223;SDS011;12359;49.716;9.212;2022-11-15T14:53:16;7.30;;;4.47;;
24223;SDS011;12359;49.716;9.212;2022-11-15T14:55:43;6.05;;;4.20;;
24223;SDS011;12359;49.716;9.212;2022-11-15T14:58:09;5.55;;;4.13;;
24223;SDS011;12359;49.716;9.212;2022-11-15T15:00:35;5.50;;;4.20;;
24223;SDS011;12359;49.716;9.212;2022-11-15T15:03:03;6.88;;;4.55;;
24223;SDS011;12359;49.716;9.212;2022-11-15T15:05:31;5.28;;;3.92;;
24223;SDS011;12359;49.716;9.212;2022-11-15T15:07:58;6.97;;;4.18;;
24223;SDS011;12359;49.716;9.212;2022-11-15T15:10:24;5.78;;;3.55;;
24223;SDS011;12359;49.716;9.212;2022-11-15T15:12:52;5.82;;;4.00;;
24223;SDS011;12359;49.716;9.212;2022-11-15T15:15:21;6.18;;;4.43;;
24223;SDS011;12359;49.716;9.212;2022-11-15T15:17:49;7.78;;;3.70;;
24223;SDS011;12359;49.716;9.212;2022-11-15T15:20:15;6.85;;;3.67;;
24223;SDS011;12359;49.716;9.212;2022-11-15T15:22:41;8.20;;;3.88;;
24223;SDS011;12359;49.716;9.212;2022-11-15T15:25:28;4.95;;;4.45;;
24223;SDS011;12359;49.716;9.212;2022-11-15T15:27:55;4.93;;;3.90;;
24223;SDS011;12359;49.716;9.212;2022-11-15T15:30:25;8.77;;;4.82;;
24223;SDS011;12359;49.716;9.212;2022-11-15T15:32:51;6.97;;;4.43;;
24223;SDS011;12359;49.716;9.212;2022-11-15T15:35:18;9.38;;;4.55;;
24223;SDS011;12359;49.716;9.212;2022-11-15T15:37:45;5.85;;;4.50;;
24223;SDS011;12359;49.716;9.212;2022-11-15T15:40:18;7.43;;;4.15;;
24223;SDS011;12359;49.716;9.212;2022-11-15T15:42:46;7.60;;;4.80;;
24223;SDS011;12359;49.716;9.212;2022-11-15T15:45:13;8.30;;;3.70;;
24223;SDS011;12359;49.716;9.212;2022-11-15T15:47:40;5.72;;;4.38;;
24223;SDS011;12359;49.716;9.212;2022-11-15T15:53:00;9.02;;;5.07;;
24223;SDS011;12359;49.716;9.212;2022-11-15T15:55:28;5.88;;;3.92;;
24223;SDS011;12359;49.716;9.212;2022-11-15T15:57:53;8.35;;;4.43;;
24223;SDS011;12359;49.716;9.212;2022-11-15T16:00:20;6.05;;;4.28;;
24223;SDS011;12359;49.716;9.212;2022-11-15T16:02:48;7.65;;;4.47;;
24223;SDS011;12359;49.716;9.212;2022-11-15T16:05:14;9.20;;;4.43;;
24223;SDS011;12359;49.716;9.212;2022-11-15T16:07:39;9.13;;;4.85;;
24223;SDS011;12359;49.716;9.212;2022-11-15T16:10:18;11.55;;;5.32;;
24223;SDS011;12359;49.716;9.212;2022-11-15T16:12:53;7.32;;;5.55;;
24223;SDS011;12359;49.716;9.212;2022-11-15T16:15:20;8.18;;;4.78;;
24223;SDS011;12359;49.716;9.212;2022-11-15T16:17:48;11.25;;;5.45;;
24223;SDS011;12359;49.716;9.212;2022-11-15T16:20:58;7.90;;;5.07;;
24223;SDS011;12359;49.716;9.212;2022-11-15T16:23:08;12.00;;;5.40;;
24223;SDS011;12359;49.716;9.212;2022-11-15T16:25:39;9.48;;;5.50;;
24223;SDS011;12359;49.716;9.212;2022-11-15T16:28:29;9.13;;;5.60;;
24223;SDS011;12359;49.716;9.212;2022-11-15T16:31:05;6.97;;;5.45;;
24223;SDS011;12359;49.716;9.212;2022-11-15T16:33:35;6.82;;;5.00;;
24223;SDS011;12359;49.716;9.212;2022-11-15T16:36:02;14.60;;;5.00;;
24223;SDS011;12359;49.716;9.212;2022-11-15T16:38:28;9.30;;;5.60;;
24223;SDS011;12359;49.716;9.212;2022-11-15T16:40:54;9.32;;;5.53;;
24223;SDS011;12359;49.716;9.212;2022-11-15T16:43:20;8.43;;;5.00;;
24223;SDS011;12359;49.716;9.212;2022-11-15T16:45:46;8.55;;;5.97;;
24223;SDS011;12359;49.716;9.212;2022-11-15T16:51:04;7.93;;;5.18;;
24223;SDS011;12359;49.716;9.212;2022-11-15T16:53:30;7.60;;;5.53;;
24223;SDS011;12359;49.716;9.212;2022-11-15T16:55:56;14.88;;;7.78;;
24223;SDS011;12359;49.716;9.212;2022-11-15T16:58:22;12.20;;;6.03;;
24223;SDS011;12359;49.716;9.212;2022-11-15T17:00:51;10.68;;;6.28;;
24223;SDS011;12359;49.716;9.212;2022-11-15T17:03:18;6.30;;;5.07;;
24223;SDS011;12359;49.716;9.212;2022-11-15T17:05:44;10.02;;;5.40;;
24223;SDS011;12359;49.716;9.212;2022-11-15T17:08:10;11.43;;;5.18;;
24223;SDS011;12359;49.716;9.212;2022-11-15T17:10:37;6.07;;;4.35;;
24223;SDS011;12359;49.716;9.212;2022-11-15T17:13:11;15.05;;;4.70;;
24223;SDS011;12359;49.716;9.212;2022-11-15T17:15:38;5.55;;;4.82;;
24223;SDS011;12359;49.716;9.212;2022-11-15T17:18:04;10.63;;;5.45;;